sensor_id;sensor_type;location;lat;lon;timestamp;pressure;altitude;pressure_sealevel;temperature;humidity
59654;BME280;66556;52.008;5.432;2023-01-30T00:00:10;101732.0;;;17.79;47.94
59654;BME280;66556;52.008;5.432;2023-01-30T00:03:24;101728.0;;;18.41;45.72
59654;BME280;66556;52.008;5.432;2023-01-30T00:05:01;101720.0;;;17.61;48.39
59654;BME280;66556;52.008;5.432;2023-01-30T00:06:38;101727.0;;;18.23;46.88
59654;BME280;66556;52.008;5.432;2023-01-30T00:08:17;101719.0;;;17.75;47.09
59654;BME280;66556;52.008;5.432;2023-01-30T00:11:32;101717.0;;;17.88;46.96
59654;BME280;66556;52.008;5.432;2023-01-30T00:13:09;101717.0;;;18.34;46.46
59654;BME280;66556;52.008;5.432;2023-01-30T00:14:47;101718.0;;;18.12;46.91
59654;BME280;66556;52.008;5.432;2023-01-30T00:18:00;101719.0;;;18.27;46.19
59654;BME280;66556;52.008;5.432;2023-01-30T00:19:37;101716.0;;;18.87;44.91
59654;BME280;66556;52.008;5.432;2023-01-30T00:21:14;101719.0;;;18.3;46.14
59654;BME280;66556;52.008;5.432;2023-01-30T00:22:50;101724.0;;;18.28;46.39
59654;BME280;66556;52.008;5.432;2023-01-30T00:26:05;101712.0;;;18.75;46.15
59654;BME280;66556;52.008;5.432;2023-01-30T00:27:42;101713.0;;;18.98;45.63
59654;BME280;66556;52.008;5.432;2023-01-30T00:29:19;101710.0;;;18.43;46.77
59654;BME280;66556;52.008;5.432;2023-01-30T00:32:32;101696.0;;;18.75;46.34
59654;BME280;66556;52.008;5.432;2023-01-30T00:34:09;101692.0;;;17.78;48.7
59654;BME280;66556;52.008;5.432;2023-01-30T00:35:48;101690.0;;;18.23;47.9
59654;BME280;66556;52.008;5.432;2023-01-30T00:39:02;101692.0;;;18.52;46.56
59654;BME280;66556;52.008;5.432;2023-01-30T00:40:39;101682.0;;;18.81;46.81
59654;BME280;66556;52.008;5.432;2023-01-30T00:47:29;101678.0;;;18.04;48.87
59654;BME280;66556;52.008;5.432;2023-01-30T00:49:07;101660.0;;;18.89;46.69
59654;BME280;66556;52.008;5.432;2023-01-30T00:50:43;101651.0;;;18.78;46.78
59654;BME280;66556;52.008;5.432;2023-01-30T00:52:21;101646.0;;;18.41;47.86
59654;BME280;66556;52.008;5.432;2023-01-30T00:55:33;101651.0;;;17.82;49.51
59654;BME280;66556;52.008;5.432;2023-01-30T00:57:09;101638.0;;;18.84;46.37
59654;BME280;66556;52.008;5.432;2023-01-30T00:58:45;101641.0;;;19.07;46.35
59654;BME280;66556;52.008;5.432;2023-01-30T01:01:58;101647.0;;;19.7;44.67
59654;BME280;66556;52.008;5.432;2023-01-30T01:03:36;101652.0;;;19.95;44.36
59654;BME280;66556;52.008;5.432;2023-01-30T01:05:13;101639.0;;;19.5;44.95
59654;BME280;66556;52.008;5.432;2023-01-30T01:06:49;101642.0;;;19.25;45.57
59654;BME280;66556;52.008;5.432;2023-01-30T01:10:02;101642.0;;;19.23;45.12
59654;BME280;66556;52.008;5.432;2023-01-30T01:11:39;101648.0;;;19.52;45.14
59654;BME280;66556;52.008;5.432;2023-01-30T01:13:16;101642.0;;;19.32;45.65
59654;BME280;66556;52.008;5.432;2023-01-30T01:16:31;101636.0;;;19.39;44.84
59654;BME280;66556;52.008;5.432;2023-01-30T01:18:09;101639.0;;;19.84;44.05
59654;BME280;66556;52.008;5.432;2023-01-30T01:19:45;101636.0;;;19.43;45.02
59654;BME280;66556;52.008;5.432;2023-01-30T01:21:22;101633.0;;;19.3;45.41
59654;BME280;66556;52.008;5.432;2023-01-30T01:24:35;101626.0;;;19.61;44.9
59654;BME280;66556;52.008;5.432;2023-01-30T01:26:12;101622.0;;;19.02;45.87
59654;BME280;66556;52.008;5.432;2023-01-30T01:27:50;101618.0;;;18.66;47.61
59654;BME280;66556;52.008;5.432;2023-01-30T01:31:08;101612.0;;;18.77;47.37
59654;BME280;66556;52.008;5.432;2023-01-30T01:32:45;101605.0;;;18.93;46.69
59654;BME280;66556;52.008;5.432;2023-01-30T01:34:22;101600.0;;;18.52;47.65
59654;BME280;66556;52.008;5.432;2023-01-30T01:35:59;101599.0;;;18.61;48.17
59654;BME280;66556;52.008;5.432;2023-01-30T01:39:12;101596.0;;;18.68;48.1
59654;BME280;66556;52.008;5.432;2023-01-30T01:41:05;101598.0;;;18.77;47.66
59654;BME280;66556;52.008;5.432;2023-01-30T01:42:42;101587.0;;;19.09;47.61
59654;BME280;66556;52.008;5.432;2023-01-30T01:45:58;101588.0;;;18.95;46.9
59654;BME280;66556;52.008;5.432;2023-01-30T01:47:39;101580.0;;;18.97;47.06
59654;BME280;66556;52.008;5.432;2023-01-30T01:49:21;101584.0;;;18.47;48.23
59654;BME280;66556;52.008;5.432;2023-01-30T01:51:01;101581.0;;;18.02;49.78
59654;BME280;66556;52.008;5.432;2023-01-30T01:54:23;101576.0;;;18.87;47.45
59654;BME280;66556;52.008;5.432;2023-01-30T01:56:03;101569.0;;;19.03;47.16
59654;BME280;66556;52.008;5.432;2023-01-30T01:57:43;101563.0;;;19.56;45.92
59654;BME280;66556;52.008;5.432;2023-01-30T01:59:26;101563.0;;;19.56;45.78
59654;BME280;66556;52.008;5.432;2023-01-30T02:01:06;101567.0;;;19.5;45.78
59654;BME280;66556;52.008;5.432;2023-01-30T02:05:01;101569.0;;;20.18;44.34
59654;BME280;66556;52.008;5.432;2023-01-30T02:06:40;101571.0;;;20.11;44.34
59654;BME280;66556;52.008;5.432;2023-01-30T02:08:21;101568.0;;;19.16;46.17
59654;BME280;66556;52.008;5.432;2023-01-30T02:10:00;101568.0;;;19.43;46.26
59654;BME280;66556;52.008;5.432;2023-01-30T02:11:41;101570.0;;;18.73;47.57
59654;BME280;66556;52.008;5.432;2023-01-30T02:14:59;101566.0;;;19.02;47.62
59654;BME280;66556;52.008;5.432;2023-01-30T02:16:36;101570.0;;;19.27;46.7
59654;BME280;66556;52.008;5.432;2023-01-30T02:18:14;101568.0;;;19.38;46.02
59654;BME280;66556;52.008;5.432;2023-01-30T02:22:19;101569.0;;;19.31;47.19
59654;BME280;66556;52.008;5.432;2023-01-30T02:32:38;101570.0;;;19.18;47.31
59654;BME280;66556;52.008;5.432;2023-01-30T02:38:13;101570.0;;;19.84;45.94
59654;BME280;66556;52.008;5.432;2023-01-30T02:40:08;101560.0;;;19.98;45.52
59654;BME280;66556;52.008;5.432;2023-01-30T02:41:52;101562.0;;;19.46;46.71
59654;BME280;66556;52.008;5.432;2023-01-30T02:43:43;101550.0;;;18.68;48.75
59654;BME280;66556;52.008;5.432;2023-01-30T02:45:29;101549.0;;;19.38;47.44
59654;BME280;66556;52.008;5.432;2023-01-30T02:47:12;101548.0;;;19.5;47.3
59654;BME280;66556;52.008;5.432;2023-01-30T02:52:18;101537.0;;;20.02;46.34
59654;BME280;66556;52.008;5.432;2023-01-30T02:53:57;101545.0;;;19.7;46.51
59654;BME280;66556;52.008;5.432;2023-01-30T02:55:40;101549.0;;;19.84;46.25
59654;BME280;66556;52.008;5.432;2023-01-30T02:58:59;101546.0;;;19.55;47.1
59654;BME280;66556;52.008;5.432;2023-01-30T03:00:54;101536.0;;;19.93;46.2
59654;BME280;66556;52.008;5.432;2023-01-30T03:02:49;101537.0;;;19.7;45.93
59654;BME280;66556;52.008;5.432;2023-01-30T03:04:51;101541.0;;;19.02;48.27
59654;BME280;66556;52.008;5.432;2023-01-30T03:06:46;101537.0;;;19.16;47.34
59654;BME280;66556;52.008;5.432;2023-01-30T03:08:38;101538.0;;;19.16;48.2
59654;BME280;66556;52.008;5.432;2023-01-30T03:10:30;101530.0;;;19.52;47.34
59654;BME280;66556;52.008;5.432;2023-01-30T03:12:21;101525.0;;;19.68;46.79
59654;BME280;66556;52.008;5.432;2023-01-30T03:15:54;101528.0;;;18.93;48.46
59654;BME280;66556;52.008;5.432;2023-01-30T03:17:34;101524.0;;;19.37;47.39
59654;BME280;66556;52.008;5.432;2023-01-30T03:19:13;101525.0;;;19.8;46.39
59654;BME280;66556;52.008;5.432;2023-01-30T03:20:50;101522.0;;;18.7;48.25
59654;BME280;66556;52.008;5.432;2023-01-30T03:24:04;101509.0;;;18.72;49.37
59654;BME280;66556;52.008;5.432;2023-01-30T03:25:42;101510.0;;;19.04;48.27
59654;BME280;66556;52.008;5.432;2023-01-30T03:27:21;101502.0;;;19.09;48.43
59654;BME280;66556;52.008;5.432;2023-01-30T03:28:59;101510.0;;;19.05;49.01
59654;BME280;66556;52.008;5.432;2023-01-30T03:32:14;101505.0;;;19.2;48.03
59654;BME280;66556;52.008;5.432;2023-01-30T03:33:51;101499.0;;;19.18;48.02
59654;BME280;66556;52.008;5.432;2023-01-30T03:35:29;101494.0;;;19.18;47.71
59654;BME280;66556;52.008;5.432;2023-01-30T03:38:42;101502.0;;;19.25;47.72
59654;BME280;66556;52.008;5.432;2023-01-30T03:40:19;101505.0;;;19.25;48.18
59654;BME280;66556;52.008;5.432;2023-01-30T03:41:56;101506.0;;;19.27;47.68
59654;BME280;66556;52.008;5.432;2023-01-30T03:45:10;101502.0;;;19.8;46.41
59654;BME280;66556;52.008;5.432;2023-01-30T03:46:47;101505.0;;;19.13;47.94
59654;BME280;66556;52.008;5.432;2023-01-30T03:48:23;101506.0;;;18.91;48.74
59654;BME280;66556;52.008;5.432;2023-01-30T03:49:59;101507.0;;;19.16;47.88
59654;BME280;66556;52.008;5.432;2023-01-30T03:53:13;101507.0;;;18.91;48.63
59654;BME280;66556;52.008;5.432;2023-01-30T03:54:50;101503.0;;;18.79;48.75
59654;BME280;66556;52.008;5.432;2023-01-30T03:56:27;101506.0;;;19.39;47.63
59654;BME280;66556;52.008;5.432;2023-01-30T03:59:42;101499.0;;;19.09;48.08
59654;BME280;66556;52.008;5.432;2023-01-30T04:01:19;101503.0;;;19.63;46.56
59654;BME280;66556;52.008;5.432;2023-01-30T04:02:56;101498.0;;;19.31;47.75
59654;BME280;66556;52.008;5.432;2023-01-30T04:04:33;101502.0;;;19.34;47.17
59654;BME280;66556;52.008;5.432;2023-01-30T04:07:47;101501.0;;;19.32;47.86
59654;BME280;66556;52.008;5.432;2023-01-30T04:09:24;101503.0;;;19.63;46.79
59654;BME280;66556;52.008;5.432;2023-01-30T04:11:01;101502.0;;;19.72;46.2
59654;BME280;66556;52.008;5.432;2023-01-30T04:14:16;101509.0;;;19.66;46.88
59654;BME280;66556;52.008;5.432;2023-01-30T04:16:13;101506.0;;;19.84;46.1
59654;BME280;66556;52.008;5.432;2023-01-30T04:17:51;101498.0;;;20.69;43.67
59654;BME280;66556;52.008;5.432;2023-01-30T04:19:28;101505.0;;;20.23;44.74
59654;BME280;66556;52.008;5.432;2023-01-30T04:22:41;101500.0;;;20.48;44.36
59654;BME280;66556;52.008;5.432;2023-01-30T04:24:18;101502.0;;;20.52;44.12
59654;BME280;66556;52.008;5.432;2023-01-30T04:25:55;101503.0;;;20.03;45.35
59654;BME280;66556;52.008;5.432;2023-01-30T04:27:33;101514.0;;;20.78;43.44
59654;BME280;66556;52.008;5.432;2023-01-30T04:30:47;101520.0;;;20.91;43.18
59654;BME280;66556;52.008;5.432;2023-01-30T04:32:24;101519.0;;;20.63;43.44
59654;BME280;66556;52.008;5.432;2023-01-30T04:34:01;101513.0;;;20.16;44.52
59654;BME280;66556;52.008;5.432;2023-01-30T04:37:15;101512.0;;;20.21;44.74
59654;BME280;66556;52.008;5.432;2023-01-30T04:38:52;101512.0;;;20.7;43.79
59654;BME280;66556;52.008;5.432;2023-01-30T04:40:29;101512.0;;;20.45;44.13
59654;BME280;66556;52.008;5.432;2023-01-30T04:43:42;101516.0;;;20.52;44.14
59654;BME280;66556;52.008;5.432;2023-01-30T04:45:19;101512.0;;;20.13;44.83
59654;BME280;66556;52.008;5.432;2023-01-30T04:46:56;101509.0;;;20.83;43.51
59654;BME280;66556;52.008;5.432;2023-01-30T04:48:33;101507.0;;;21.13;42.83
59654;BME280;66556;52.008;5.432;2023-01-30T04:51:47;101509.0;;;20.63;43.88
59654;BME280;66556;52.008;5.432;2023-01-30T04:53:25;101518.0;;;20.83;43.58
59654;BME280;66556;52.008;5.432;2023-01-30T04:55:02;101515.0;;;20.72;44.04
59654;BME280;66556;52.008;5.432;2023-01-30T04:58:15;101514.0;;;21.11;43.37
59654;BME280;66556;52.008;5.432;2023-01-30T04:59:53;101511.0;;;21.09;42.87
59654;BME280;66556;52.008;5.432;2023-01-30T05:01:32;101510.0;;;20.89;42.5
59654;BME280;66556;52.008;5.432;2023-01-30T05:03:10;101499.0;;;20.36;44.51
59654;BME280;66556;52.008;5.432;2023-01-30T05:06:25;101495.0;;;20.41;43.91
59654;BME280;66556;52.008;5.432;2023-01-30T05:08:02;101501.0;;;19.34;46.18
59654;BME280;66556;52.008;5.432;2023-01-30T05:09:39;101502.0;;;19.61;45.73
59654;BME280;66556;52.008;5.432;2023-01-30T05:12:53;101503.0;;;19.41;46.0
59654;BME280;66556;52.008;5.432;2023-01-30T05:14:31;101510.0;;;20.25;43.87
59654;BME280;66556;52.008;5.432;2023-01-30T05:16:08;101517.0;;;18.82;46.9
59654;BME280;66556;52.008;5.432;2023-01-30T05:17:45;101518.0;;;19.55;44.82
59654;BME280;66556;52.008;5.432;2023-01-30T05:21:04;101519.0;;;20.27;43.51
59654;BME280;66556;52.008;5.432;2023-01-30T05:22:41;101528.0;;;20.34;42.66
59654;BME280;66556;52.008;5.432;2023-01-30T05:24:18;101524.0;;;20.09;43.35
59654;BME280;66556;52.008;5.432;2023-01-30T05:27:33;101517.0;;;19.91;44.3
59654;BME280;66556;52.008;5.432;2023-01-30T05:29:10;101516.0;;;19.59;44.46
59654;BME280;66556;52.008;5.432;2023-01-30T05:30:47;101516.0;;;19.45;44.8
59654;BME280;66556;52.008;5.432;2023-01-30T05:32:26;101507.0;;;19.87;43.79
59654;BME280;66556;52.008;5.432;2023-01-30T05:35:45;101523.0;;;19.81;43.53
59654;BME280;66556;52.008;5.432;2023-01-30T05:37:23;101528.0;;;19.52;44.33
59654;BME280;66556;52.008;5.432;2023-01-30T05:39:00;101533.0;;;20.09;42.91
59654;BME280;66556;52.008;5.432;2023-01-30T05:42:14;101533.0;;;20.09;42.63
59654;BME280;66556;52.008;5.432;2023-01-30T05:43:51;101541.0;;;19.34;44.37
59654;BME280;66556;52.008;5.432;2023-01-30T05:45:28;101540.0;;;19.05;44.87
59654;BME280;66556;52.008;5.432;2023-01-30T05:47:05;101549.0;;;18.95;44.46
59654;BME280;66556;52.008;5.432;2023-01-30T05:50:20;101555.0;;;18.95;44.01
59654;BME280;66556;52.008;5.432;2023-01-30T05:51:56;101544.0;;;18.78;44.51
59654;BME280;66556;52.008;5.432;2023-01-30T05:53:34;101545.0;;;19.14;43.22
59654;BME280;66556;52.008;5.432;2023-01-30T05:56:48;101536.0;;;19.7;42.34
59654;BME280;66556;52.008;5.432;2023-01-30T05:58:25;101543.0;;;19.09;43.68
59654;BME280;66556;52.008;5.432;2023-01-30T06:00:05;101540.0;;;18.84;44.38
59654;BME280;66556;52.008;5.432;2023-01-30T06:01:42;101542.0;;;18.77;43.77
59654;BME280;66556;52.008;5.432;2023-01-30T06:04:56;101537.0;;;19.09;43.5
59654;BME280;66556;52.008;5.432;2023-01-30T06:06:33;101534.0;;;19.84;41.47
59654;BME280;66556;52.008;5.432;2023-01-30T06:08:11;101534.0;;;19.7;41.46
59654;BME280;66556;52.008;5.432;2023-01-30T06:11:24;101538.0;;;19.59;41.21
59654;BME280;66556;52.008;5.432;2023-01-30T06:13:01;101526.0;;;19.45;40.74
59654;BME280;66556;52.008;5.432;2023-01-30T06:14:38;101547.0;;;19.5;41.15
59654;BME280;66556;52.008;5.432;2023-01-30T06:17:54;101544.0;;;19.63;40.97
59654;BME280;66556;52.008;5.432;2023-01-30T06:19:31;101555.0;;;19.87;39.93
59654;BME280;66556;52.008;5.432;2023-01-30T06:21:09;101559.0;;;20.03;39.39
59654;BME280;66556;52.008;5.432;2023-01-30T06:22:47;101567.0;;;19.97;39.42
59654;BME280;66556;52.008;5.432;2023-01-30T06:26:01;101564.0;;;20.25;38.54
59654;BME280;66556;52.008;5.432;2023-01-30T06:27:38;101568.0;;;20.16;38.44
59654;BME280;66556;52.008;5.432;2023-01-30T06:29:15;101580.0;;;20.16;38.51
59654;BME280;66556;52.008;5.432;2023-01-30T06:32:30;101567.0;;;20.22;38.46
59654;BME280;66556;52.008;5.432;2023-01-30T06:34:07;101550.0;;;20.39;37.37
59654;BME280;66556;52.008;5.432;2023-01-30T06:37:24;101562.0;;;20.46;37.14
59654;BME280;66556;52.008;5.432;2023-01-30T06:40:39;101564.0;;;19.79;38.42
59654;BME280;66556;52.008;5.432;2023-01-30T06:42:17;101562.0;;;20.73;36.79
59654;BME280;66556;52.008;5.432;2023-01-30T06:43:54;101565.0;;;20.09;37.74
59654;BME280;66556;52.008;5.432;2023-01-30T06:47:08;101567.0;;;21.0;35.83
59654;BME280;66556;52.008;5.432;2023-01-30T06:48:44;101563.0;;;20.48;36.64
59654;BME280;66556;52.008;5.432;2023-01-30T06:50:24;101566.0;;;20.27;37.24
59654;BME280;66556;52.008;5.432;2023-01-30T06:52:01;101576.0;;;20.02;37.51
59654;BME280;66556;52.008;5.432;2023-01-30T06:55:17;101575.0;;;20.2;37.06
59654;BME280;66556;52.008;5.432;2023-01-30T06:56:55;101576.0;;;19.77;37.68
59654;BME280;66556;52.008;5.432;2023-01-30T06:58:32;101577.0;;;19.88;37.74
59654;BME280;66556;52.008;5.432;2023-01-30T07:01:50;101592.0;;;19.88;37.35
59654;BME280;66556;52.008;5.432;2023-01-30T07:03:27;101585.0;;;19.5;38.03
59654;BME280;66556;52.008;5.432;2023-01-30T07:05:06;101578.0;;;19.93;37.71
59654;BME280;66556;52.008;5.432;2023-01-30T07:06:45;101580.0;;;19.61;37.56
59654;BME280;66556;52.008;5.432;2023-01-30T07:10:00;101588.0;;;17.77;41.49
59654;BME280;66556;52.008;5.432;2023-01-30T07:11:37;101590.0;;;17.57;41.76
59654;BME280;66556;52.008;5.432;2023-01-30T07:13:14;101588.0;;;17.07;43.43
59654;BME280;66556;52.008;5.432;2023-01-30T07:16:29;101592.0;;;17.11;43.85
59654;BME280;66556;52.008;5.432;2023-01-30T07:18:07;101587.0;;;18.27;40.96
59654;BME280;66556;52.008;5.432;2023-01-30T07:19:44;101594.0;;;18.57;39.92
59654;BME280;66556;52.008;5.432;2023-01-30T07:21:22;101611.0;;;18.52;39.93
59654;BME280;66556;52.008;5.432;2023-01-30T07:24:36;101621.0;;;18.89;39.08
59654;BME280;66556;52.008;5.432;2023-01-30T07:26:13;101623.0;;;19.09;38.22
59654;BME280;66556;52.008;5.432;2023-01-30T07:27:51;101635.0;;;18.27;39.49
59654;BME280;66556;52.008;5.432;2023-01-30T07:31:04;101634.0;;;19.12;38.14
59654;BME280;66556;52.008;5.432;2023-01-30T07:32:42;101616.0;;;19.22;37.53
59654;BME280;66556;52.008;5.432;2023-01-30T07:34:19;101620.0;;;18.53;38.33
59654;BME280;66556;52.008;5.432;2023-01-30T07:35:56;101622.0;;;19.31;36.99
59654;BME280;66556;52.008;5.432;2023-01-30T07:39:10;101624.0;;;18.84;37.46
59654;BME280;66556;52.008;5.432;2023-01-30T07:40:47;101640.0;;;19.18;36.56
59654;BME280;66556;52.008;5.432;2023-01-30T07:42:24;101630.0;;;18.73;37.24
59654;BME280;66556;52.008;5.432;2023-01-30T07:45:39;101632.0;;;18.91;36.87
59654;BME280;66556;52.008;5.432;2023-01-30T07:47:19;101630.0;;;19.52;35.81
59654;BME280;66556;52.008;5.432;2023-01-30T07:48:55;101630.0;;;18.7;36.69
59654;BME280;66556;52.008;5.432;2023-01-30T07:50:32;101636.0;;;19.22;36.46
59654;BME280;66556;52.008;5.432;2023-01-30T07:53:48;101639.0;;;19.84;35.19
59654;BME280;66556;52.008;5.432;2023-01-30T07:55:26;101641.0;;;19.66;35.1
59654;BME280;66556;52.008;5.432;2023-01-30T07:57:02;101630.0;;;19.04;36.33
59654;BME280;66556;52.008;5.432;2023-01-30T08:00:17;101627.0;;;19.68;35.24
59654;BME280;66556;52.008;5.432;2023-01-30T08:01:57;101630.0;;;18.43;37.06
59654;BME280;66556;52.008;5.432;2023-01-30T08:03:34;101645.0;;;18.88;36.04
59654;BME280;66556;52.008;5.432;2023-01-30T08:05:11;101644.0;;;18.5;37.62
59654;BME280;66556;52.008;5.432;2023-01-30T08:08:25;101639.0;;;19.29;35.49
59654;BME280;66556;52.008;5.432;2023-01-30T08:10:04;101643.0;;;19.63;35.62
59654;BME280;66556;52.008;5.432;2023-01-30T08:11:41;101640.0;;;19.81;35.21
59654;BME280;66556;52.008;5.432;2023-01-30T08:14:54;101641.0;;;20.03;34.81
59654;BME280;66556;52.008;5.432;2023-01-30T08:16:33;101642.0;;;20.5;34.17
59654;BME280;66556;52.008;5.432;2023-01-30T08:18:10;101642.0;;;19.91;35.17
59654;BME280;66556;52.008;5.432;2023-01-30T08:19:46;101647.0;;;19.84;35.08
59654;BME280;66556;52.008;5.432;2023-01-30T08:23:01;101646.0;;;20.09;35.06
59654;BME280;66556;52.008;5.432;2023-01-30T08:24:38;101647.0;;;20.02;35.0
59654;BME280;66556;52.008;5.432;2023-01-30T08:26:14;101651.0;;;19.38;35.82
59654;BME280;66556;52.008;5.432;2023-01-30T08:29:28;101655.0;;;19.71;35.53
59654;BME280;66556;52.008;5.432;2023-01-30T08:31:08;101665.0;;;19.88;35.57
59654;BME280;66556;52.008;5.432;2023-01-30T08:32:46;101674.0;;;20.27;35.06
59654;BME280;66556;52.008;5.432;2023-01-30T08:34:23;101670.0;;;19.86;35.35
59654;BME280;66556;52.008;5.432;2023-01-30T08:37:38;101674.0;;;20.43;34.62
59654;BME280;66556;52.008;5.432;2023-01-30T08:39:14;101682.0;;;20.25;34.56
59654;BME280;66556;52.008;5.432;2023-01-30T08:40:50;101681.0;;;20.66;33.96
59654;BME280;66556;52.008;5.432;2023-01-30T08:44:21;101685.0;;;20.64;34.37
59654;BME280;66556;52.008;5.432;2023-01-30T08:45:58;101678.0;;;20.77;34.25
59654;BME280;66556;52.008;5.432;2023-01-30T08:47:35;101692.0;;;20.54;34.5
59654;BME280;66556;52.008;5.432;2023-01-30T08:49:12;101685.0;;;20.41;34.53
59654;BME280;66556;52.008;5.432;2023-01-30T08:52:27;101697.0;;;20.02;35.46
59654;BME280;66556;52.008;5.432;2023-01-30T08:54:06;101695.0;;;19.41;35.67
59654;BME280;66556;52.008;5.432;2023-01-30T08:55:43;101692.0;;;20.97;33.72
59654;BME280;66556;52.008;5.432;2023-01-30T08:58:57;101697.0;;;20.05;34.07
59654;BME280;66556;52.008;5.432;2023-01-30T09:00:34;101695.0;;;20.05;34.74
59654;BME280;66556;52.008;5.432;2023-01-30T09:02:11;101700.0;;;19.91;34.67
59654;BME280;66556;52.008;5.432;2023-01-30T09:03:49;101705.0;;;19.86;34.92
59654;BME280;66556;52.008;5.432;2023-01-30T09:07:03;101712.0;;;19.77;34.97
59654;BME280;66556;52.008;5.432;2023-01-30T09:08:39;101710.0;;;20.07;34.94
59654;BME280;66556;52.008;5.432;2023-01-30T09:10:16;101705.0;;;19.47;35.42
59654;BME280;66556;52.008;5.432;2023-01-30T09:13:33;101714.0;;;20.18;34.69
59654;BME280;66556;52.008;5.432;2023-01-30T09:15:10;101709.0;;;19.82;34.89
59654;BME280;66556;52.008;5.432;2023-01-30T09:16:48;101705.0;;;20.07;34.85
59654;BME280;66556;52.008;5.432;2023-01-30T09:18:25;101709.0;;;20.11;34.49
59654;BME280;66556;52.008;5.432;2023-01-30T09:21:40;101705.0;;;20.06;35.0
59654;BME280;66556;52.008;5.432;2023-01-30T09:23:17;101705.0;;;20.03;34.26
59654;BME280;66556;52.008;5.432;2023-01-30T09:24:54;101716.0;;;19.84;35.0
59654;BME280;66556;52.008;5.432;2023-01-30T09:28:08;101717.0;;;20.22;34.58
59654;BME280;66556;52.008;5.432;2023-01-30T09:29:44;101721.0;;;20.04;34.69
59654;BME280;66556;52.008;5.432;2023-01-30T09:31:22;101724.0;;;20.87;33.31
59654;BME280;66556;52.008;5.432;2023-01-30T09:32:59;101720.0;;;21.36;32.36
59654;BME280;66556;52.008;5.432;2023-01-30T09:36:13;101727.0;;;21.46;32.04
59654;BME280;66556;52.008;5.432;2023-01-30T09:37:52;101727.0;;;20.05;34.4
59654;BME280;66556;52.008;5.432;2023-01-30T09:39:29;101730.0;;;19.71;35.06
59654;BME280;66556;52.008;5.432;2023-01-30T09:43:37;101735.0;;;20.37;33.99
59654;BME280;66556;52.008;5.432;2023-01-30T09:47:25;101738.0;;;20.09;34.46
59654;BME280;66556;52.008;5.432;2023-01-30T09:49:16;101747.0;;;20.2;34.25
59654;BME280;66556;52.008;5.432;2023-01-30T09:51:13;101734.0;;;20.06;34.28
59654;BME280;66556;52.008;5.432;2023-01-30T09:53:20;101741.0;;;20.36;34.64
59654;BME280;66556;52.008;5.432;2023-01-30T09:55:16;101747.0;;;20.04;34.49
59654;BME280;66556;52.008;5.432;2023-01-30T09:57:00;101745.0;;;20.63;33.67
59654;BME280;66556;52.008;5.432;2023-01-30T09:58:46;101753.0;;;20.55;34.01
59654;BME280;66556;52.008;5.432;2023-01-30T10:00:30;101755.0;;;21.07;32.89
59654;BME280;66556;52.008;5.432;2023-01-30T10:04:22;101762.0;;;20.27;34.1
59654;BME280;66556;52.008;5.432;2023-01-30T10:06:05;101767.0;;;21.19;32.64
59654;BME280;66556;52.008;5.432;2023-01-30T10:07:55;101766.0;;;21.3;32.8
59654;BME280;66556;52.008;5.432;2023-01-30T10:09:43;101761.0;;;21.44;32.31
59654;BME280;66556;52.008;5.432;2023-01-30T10:11:36;101762.0;;;21.23;32.43
59654;BME280;66556;52.008;5.432;2023-01-30T10:13:30;101763.0;;;20.98;32.49
59654;BME280;66556;52.008;5.432;2023-01-30T10:15:21;101762.0;;;20.53;33.24
59654;BME280;66556;52.008;5.432;2023-01-30T10:17:16;101773.0;;;20.2;33.85
59654;BME280;66556;52.008;5.432;2023-01-30T10:19:28;101775.0;;;20.58;33.78
59654;BME280;66556;52.008;5.432;2023-01-30T10:21:21;101780.0;;;20.36;33.6
59654;BME280;66556;52.008;5.432;2023-01-30T10:25:31;101780.0;;;20.25;34.46
59654;BME280;66556;52.008;5.432;2023-01-30T10:28:55;101785.0;;;19.91;34.96
59654;BME280;66556;52.008;5.432;2023-01-30T10:30:35;101785.0;;;20.84;33.62
59654;BME280;66556;52.008;5.432;2023-01-30T10:32:14;101789.0;;;20.36;34.19
59654;BME280;66556;52.008;5.432;2023-01-30T10:33:59;101801.0;;;18.62;37.74
59654;BME280;66556;52.008;5.432;2023-01-30T10:37:21;101798.0;;;18.71;37.83
59654;BME280;66556;52.008;5.432;2023-01-30T10:39:08;101797.0;;;18.0;38.72
59654;BME280;66556;52.008;5.432;2023-01-30T10:41:03;101794.0;;;18.77;37.58
59654;BME280;66556;52.008;5.432;2023-01-30T10:42:48;101793.0;;;19.21;37.12
59654;BME280;66556;52.008;5.432;2023-01-30T10:44:28;101790.0;;;19.56;36.81
59654;BME280;66556;52.008;5.432;2023-01-30T10:48:13;101787.0;;;18.62;38.47
59654;BME280;66556;52.008;5.432;2023-01-30T10:50:16;101794.0;;;18.56;37.99
59654;BME280;66556;52.008;5.432;2023-01-30T10:52:04;101802.0;;;18.47;38.06
59654;BME280;66556;52.008;5.432;2023-01-30T10:53:52;101795.0;;;18.43;38.39
59654;BME280;66556;52.008;5.432;2023-01-30T10:55:34;101797.0;;;18.97;37.39
59654;BME280;66556;52.008;5.432;2023-01-30T10:57:22;101802.0;;;18.48;37.71
59654;BME280;66556;52.008;5.432;2023-01-30T10:59:21;101801.0;;;18.52;38.08
59654;BME280;66556;52.008;5.432;2023-01-30T11:01:00;101795.0;;;18.43;38.17
59654;BME280;66556;52.008;5.432;2023-01-30T11:04:44;101799.0;;;18.48;38.61
59654;BME280;66556;52.008;5.432;2023-01-30T11:06:24;101793.0;;;18.5;38.22
59654;BME280;66556;52.008;5.432;2023-01-30T11:08:02;101797.0;;;18.87;37.64
59654;BME280;66556;52.008;5.432;2023-01-30T11:09:42;101796.0;;;18.71;37.81
59654;BME280;66556;52.008;5.432;2023-01-30T11:11:24;101796.0;;;18.18;38.54
59654;BME280;66556;52.008;5.432;2023-01-30T11:14:53;101805.0;;;18.16;38.85
59654;BME280;66556;52.008;5.432;2023-01-30T11:16:39;101792.0;;;18.86;37.42
59654;BME280;66556;52.008;5.432;2023-01-30T11:18:20;101805.0;;;18.47;38.57
59654;BME280;66556;52.008;5.432;2023-01-30T11:20:03;101797.0;;;18.07;39.01
59654;BME280;66556;52.008;5.432;2023-01-30T11:23:30;101796.0;;;18.63;38.28
59654;BME280;66556;52.008;5.432;2023-01-30T11:25:13;101793.0;;;19.46;36.96
59654;BME280;66556;52.008;5.432;2023-01-30T11:26:52;101789.0;;;19.43;37.51
59654;BME280;66556;52.008;5.432;2023-01-30T11:28:37;101796.0;;;19.27;36.71
59654;BME280;66556;52.008;5.432;2023-01-30T11:30:19;101792.0;;;19.18;36.97